createdAt,value
2023-01-25T00:02:17.794Z,27.90
2023-01-25T00:04:46.282Z,26.30
2023-01-25T00:07:14.601Z,29.20
2023-01-25T00:09:42.920Z,35.40
2023-01-25T00:12:11.333Z,39.10
2023-01-25T00:14:39.540Z,31.50
2023-01-25T00:17:07.818Z,32.10
2023-01-25T00:19:36.227Z,33.10
2023-01-25T00:22:04.433Z,32.10
2023-01-25T00:24:32.733Z,35.50
2023-01-25T00:27:02.471Z,33.60
2023-01-25T00:29:32.882Z,33.00
2023-01-25T00:32:01.356Z,32.60
2023-01-25T00:34:43.977Z,30.20
2023-01-25T00:37:28.663Z,33.50
2023-01-25T00:39:58.970Z,38.10
2023-01-25T00:42:27.366Z,33.10
2023-01-25T00:44:55.699Z,33.90
2023-01-25T00:47:24.027Z,30.90
2023-01-25T00:49:52.441Z,33.50
2023-01-25T00:52:22.678Z,31.60
2023-01-25T00:54:51.119Z,31.50
2023-01-25T00:57:19.453Z,31.70
2023-01-25T00:59:48.039Z,32.30
2023-01-25T01:02:16.511Z,32.60
2023-01-25T01:04:44.881Z,30.70
2023-01-25T01:07:15.469Z,30.70
2023-01-25T01:09:43.869Z,30.20
2023-01-25T01:12:12.263Z,29.50
2023-01-25T01:14:40.575Z,26.60
2023-01-25T01:17:08.946Z,35.10
2023-01-25T01:19:37.323Z,26.80
2023-01-25T01:22:05.645Z,28.20
2023-01-25T01:24:34.004Z,28.40
2023-01-25T01:27:04.269Z,28.20
2023-01-25T01:29:32.614Z,28.30
2023-01-25T01:32:01.037Z,29.30
2023-01-25T01:34:29.462Z,29.70
2023-01-25T01:36:57.804Z,28.50
2023-01-25T01:39:26.232Z,28.80
2023-01-25T01:41:54.567Z,29.90
2023-01-25T01:44:44.893Z,30.10
2023-01-25T01:47:27.622Z,25.50
2023-01-25T01:50:04.775Z,20.80
2023-01-25T01:52:37.392Z,22.60
2023-01-25T01:55:11.951Z,29.80
2023-01-25T01:58:00.365Z,19.30
2023-01-25T02:00:34.630Z,20.60
2023-01-25T02:03:03.012Z,19.00
2023-01-25T02:05:36.730Z,20.30
2023-01-25T02:08:07.163Z,21.60
2023-01-25T02:10:37.052Z,19.50
2023-01-25T02:13:05.370Z,21.60
2023-01-25T02:15:51.100Z,19.00
2023-01-25T02:18:20.305Z,20.70
2023-01-25T02:20:52.879Z,20.90
2023-01-25T02:24:09.803Z,18.40
2023-01-25T02:26:40.635Z,21.10
2023-01-25T02:29:11.049Z,18.90
2023-01-25T02:31:39.640Z,20.30
2023-01-25T02:34:08.208Z,15.60
2023-01-25T02:36:36.639Z,16.90
2023-01-25T02:39:13.202Z,19.50
2023-01-25T02:41:44.047Z,19.90
2023-01-25T02:44:20.571Z,17.60
2023-01-25T02:46:49.004Z,17.70
2023-01-25T02:49:17.797Z,21.70
2023-01-25T02:51:57.561Z,20.40
2023-01-25T02:54:27.072Z,21.70
2023-01-25T02:56:56.665Z,21.60
2023-01-25T02:59:26.301Z,23.70
2023-01-25T03:01:56.730Z,21.70
2023-01-25T03:04:25.065Z,21.40
2023-01-25T03:06:53.542Z,22.50
2023-01-25T03:09:21.906Z,20.70
2023-01-25T03:11:50.892Z,18.60
2023-01-25T03:14:20.170Z,22.30
2023-01-25T03:16:48.523Z,21.60
2023-01-25T03:19:17.333Z,20.20
2023-01-25T03:21:46.928Z,21.10
2023-01-25T03:24:15.509Z,20.80
2023-01-25T03:27:06.305Z,21.60
2023-01-25T03:29:42.998Z,22.40
2023-01-25T03:32:15.246Z,19.00
2023-01-25T03:34:43.656Z,18.80
2023-01-25T03:37:12.145Z,20.00
2023-01-25T03:39:41.458Z,19.20
2023-01-25T03:42:10.557Z,21.10
2023-01-25T03:44:38.950Z,22.80
2023-01-25T03:47:07.866Z,26.70
2023-01-25T03:49:36.535Z,29.70
2023-01-25T03:52:05.484Z,25.70
2023-01-25T03:54:38.969Z,36.00
2023-01-25T03:57:08.435Z,37.20
2023-01-25T03:59:44.310Z,48.50
2023-01-25T04:02:14.882Z,40.40
2023-01-25T04:04:43.806Z,44.40
2023-01-25T04:07:12.283Z,43.60
2023-01-25T04:09:41.235Z,44.40
2023-01-25T04:12:10.238Z,43.60
2023-01-25T04:14:44.593Z,45.40
2023-01-25T04:17:24.206Z,41.40
2023-01-25T04:19:55.813Z,42.70
2023-01-25T04:22:27.873Z,44.60
2023-01-25T04:24:57.506Z,44.90
2023-01-25T04:27:25.997Z,46.70
2023-01-25T04:30:02.865Z,45.70
2023-01-25T04:32:32.068Z,38.90
2023-01-25T04:35:01.035Z,46.10
2023-01-25T04:37:30.391Z,34.60
2023-01-25T04:40:00.204Z,39.70
2023-01-25T04:42:30.867Z,38.90
2023-01-25T04:45:00.135Z,40.80
2023-01-25T04:47:28.868Z,40.60
2023-01-25T04:49:57.739Z,39.90
2023-01-25T04:52:27.857Z,35.80
2023-01-25T04:54:56.614Z,36.50
2023-01-25T04:57:25.064Z,39.30
2023-01-25T04:59:54.078Z,38.40
2023-01-25T05:02:23.812Z,41.70
2023-01-25T05:04:52.245Z,41.00
2023-01-25T05:07:21.188Z,35.30
2023-01-25T05:09:49.643Z,42.20
2023-01-25T05:12:20.327Z,43.10
2023-01-25T05:14:55.778Z,45.70
2023-01-25T05:17:24.456Z,40.40
2023-01-25T05:19:52.821Z,38.70
2023-01-25T05:22:23.632Z,45.20
2023-01-25T05:24:54.296Z,44.70
2023-01-25T05:27:23.135Z,43.60
2023-01-25T05:29:58.129Z,43.10
2023-01-25T05:32:45.143Z,42.90
2023-01-25T05:35:15.086Z,47.30
2023-01-25T05:37:44.519Z,43.20
2023-01-25T05:40:17.979Z,41.40
2023-01-25T05:42:54.155Z,48.50
2023-01-25T05:45:22.783Z,43.40
2023-01-25T05:47:56.125Z,43.60
2023-01-25T05:50:26.641Z,44.30
2023-01-25T05:53:15.166Z,46.20
2023-01-25T05:55:43.514Z,42.70
2023-01-25T05:58:15.779Z,43.10
2023-01-25T06:00:44.786Z,49.30
2023-01-25T06:03:16.681Z,51.00
2023-01-25T06:05:45.306Z,49.50
2023-01-25T06:08:13.522Z,45.00
2023-01-25T06:10:51.574Z,50.70
2023-01-25T06:13:22.408Z,54.30
2023-01-25T06:15:56.012Z,47.00
2023-01-25T06:18:50.802Z,47.80
2023-01-25T06:21:31.859Z,46.10
2023-01-25T06:24:00.240Z,46.80
2023-01-25T06:26:28.638Z,51.10
2023-01-25T06:28:57.487Z,49.20
2023-01-25T06:31:26.047Z,49.90
2023-01-25T06:33:54.830Z,48.20
2023-01-25T06:36:24.295Z,48.40
2023-01-25T06:38:53.562Z,49.40
2023-01-25T06:41:23.469Z,52.60
2023-01-25T06:43:52.737Z,55.50
2023-01-25T06:46:21.686Z,50.00
2023-01-25T06:48:50.189Z,63.60
2023-01-25T06:51:19.379Z,62.80
2023-01-25T06:53:48.354Z,55.80
2023-01-25T06:56:21.652Z,56.80
2023-01-25T06:58:50.824Z,54.50
2023-01-25T07:01:22.202Z,54.70
2023-01-25T07:03:52.587Z,58.90
2023-01-25T07:06:21.931Z,54.70
2023-01-25T07:08:50.938Z,51.50
2023-01-25T07:11:19.588Z,47.90
2023-01-25T07:13:48.930Z,53.90
2023-01-25T07:16:20.657Z,52.60
2023-01-25T07:18:49.191Z,53.30
2023-01-25T07:21:26.679Z,48.60
2023-01-25T07:24:02.791Z,56.80
2023-01-25T07:26:32.569Z,54.70
2023-01-25T07:29:02.370Z,45.50
2023-01-25T07:31:31.261Z,46.80
2023-01-25T07:33:59.708Z,48.00
2023-01-25T07:36:28.247Z,42.20
2023-01-25T07:38:58.480Z,48.10
2023-01-25T07:41:27.463Z,47.90
2023-01-25T07:43:56.289Z,44.00
2023-01-25T07:46:41.244Z,54.60
2023-01-25T07:49:10.369Z,54.00
2023-01-25T07:51:38.773Z,51.10
2023-01-25T07:54:07.280Z,52.00
2023-01-25T07:56:38.643Z,50.30
2023-01-25T07:59:10.218Z,52.70
2023-01-25T08:01:40.317Z,56.70
2023-01-25T08:04:09.875Z,55.30
2023-01-25T08:06:39.618Z,57.00
2023-01-25T08:09:13.388Z,58.60
2023-01-25T08:11:42.651Z,54.80
2023-01-25T08:14:14.057Z,57.30
2023-01-25T08:16:42.955Z,51.30
2023-01-25T08:19:11.917Z,55.40
2023-01-25T08:21:40.327Z,52.20
2023-01-25T08:24:09.881Z,53.50
2023-01-25T08:26:38.498Z,52.70
2023-01-25T08:29:07.051Z,54.70
2023-01-25T08:31:44.133Z,52.00
2023-01-25T08:34:12.919Z,48.70
2023-01-25T08:36:41.334Z,48.40
2023-01-25T08:39:11.981Z,52.40
2023-01-25T08:41:40.547Z,57.20
2023-01-25T08:44:09.695Z,57.50
2023-01-25T08:46:41.342Z,57.30
2023-01-25T08:49:12.966Z,65.80
2023-01-25T08:51:41.960Z,53.00
2023-01-25T08:56:44.975Z,59.00
2023-01-25T08:59:16.825Z,55.80
2023-01-25T09:01:45.492Z,53.10
2023-01-25T09:04:13.978Z,55.80
2023-01-25T09:06:42.312Z,55.30
2023-01-25T09:09:13.484Z,51.00
2023-01-25T09:11:42.269Z,52.20
2023-01-25T09:14:12.908Z,53.30
2023-01-25T09:16:41.949Z,54.50
2023-01-25T09:19:10.340Z,65.80
2023-01-25T09:21:42.672Z,70.10
2023-01-25T09:24:18.597Z,70.90
2023-01-25T09:26:55.927Z,61.10
2023-01-25T09:29:39.571Z,58.40
2023-01-25T09:32:10.598Z,58.50
2023-01-25T09:34:51.134Z,67.70
2023-01-25T09:37:19.607Z,65.80
2023-01-25T09:39:48.169Z,92.30
2023-01-25T09:42:37.151Z,67.20
2023-01-25T09:45:14.222Z,67.10
2023-01-25T09:47:56.299Z,60.70
2023-01-25T09:50:35.185Z,61.80
2023-01-25T09:53:27.138Z,61.60
2023-01-25T09:55:59.843Z,55.80
2023-01-25T09:58:43.280Z,60.80
2023-01-25T10:01:38.585Z,55.40
2023-01-25T10:04:26.033Z,63.30
2023-01-25T10:07:01.681Z,55.30
2023-01-25T10:10:11.005Z,73.50
2023-01-25T10:12:40.111Z,75.30
2023-01-25T10:15:21.256Z,65.70
2023-01-25T10:18:08.602Z,58.80
2023-01-25T10:20:53.453Z,65.50
2023-01-25T10:24:00.326Z,59.40
2023-01-25T10:26:33.467Z,55.90
2023-01-25T10:29:23.163Z,63.10
2023-01-25T10:32:10.612Z,66.60
2023-01-25T10:34:56.832Z,59.00
2023-01-25T10:37:31.247Z,54.70
2023-01-25T10:40:22.716Z,47.50
2023-01-25T10:43:01.105Z,47.10
2023-01-25T10:45:30.666Z,46.40
2023-01-25T10:48:06.740Z,38.20
2023-01-25T10:50:46.616Z,35.80
2023-01-25T10:53:34.974Z,38.80
2023-01-25T10:56:09.347Z,40.90
2023-01-25T10:58:45.473Z,37.50
2023-01-25T11:01:25.837Z,37.60
2023-01-25T11:03:55.171Z,31.40
2023-01-25T11:06:39.345Z,34.80
2023-01-25T11:09:23.327Z,29.90
2023-01-25T11:12:00.241Z,35.70
2023-01-25T11:14:33.899Z,79.30
2023-01-25T11:17:06.265Z,34.90
2023-01-25T11:19:38.052Z,37.50
2023-01-25T11:22:18.879Z,34.30
2023-01-25T11:24:47.739Z,35.70
2023-01-25T11:27:16.113Z,39.60
2023-01-25T11:29:47.422Z,38.50
2023-01-25T11:32:25.247Z,35.20
2023-01-25T11:34:55.264Z,35.30
2023-01-25T11:37:42.605Z,32.70
2023-01-25T11:40:19.396Z,30.20
2023-01-25T11:43:03.644Z,31.50
2023-01-25T11:46:01.982Z,32.00
2023-01-25T11:48:47.656Z,34.00
2023-01-25T11:51:33.931Z,27.90
2023-01-25T11:54:09.299Z,28.70
2023-01-25T11:56:53.810Z,29.80
2023-01-25T11:59:28.371Z,32.10
2023-01-25T12:02:16.431Z,31.30
2023-01-25T12:04:57.074Z,30.40
2023-01-25T12:07:53.747Z,30.10
2023-01-25T12:10:34.711Z,31.00
2023-01-25T12:13:12.361Z,30.00
2023-01-25T12:16:02.534Z,30.20
2023-01-25T12:19:01.926Z,28.00
2023-01-25T12:21:52.317Z,26.90
2023-01-25T12:24:44.710Z,26.90
2023-01-25T12:27:36.088Z,29.00
2023-01-25T12:30:33.422Z,29.50
2023-01-25T12:33:15.099Z,29.00
2023-01-25T12:35:54.954Z,30.00
2023-01-25T12:39:03.759Z,32.00
2023-01-25T12:41:40.118Z,32.40
2023-01-25T12:44:21.417Z,34.00
2023-01-25T12:46:52.684Z,30.30
2023-01-25T12:49:37.769Z,29.90
2023-01-25T12:52:15.891Z,27.60
2023-01-25T12:54:47.734Z,17.90
2023-01-25T12:57:20.339Z,24.90
2023-01-25T12:59:59.942Z,28.10
2023-01-25T13:02:34.573Z,26.40
2023-01-25T13:05:30.983Z,30.30
2023-01-25T13:08:30.172Z,33.10
2023-01-25T13:11:32.644Z,31.20
2023-01-25T13:14:31.842Z,38.80
2023-01-25T13:17:36.377Z,60.20
2023-01-25T13:20:40.249Z,51.20
2023-01-25T13:23:47.669Z,49.10
2023-01-25T13:26:22.150Z,39.20
2023-01-25T13:28:55.368Z,31.80
2023-01-25T13:31:55.893Z,35.70
2023-01-25T13:34:42.642Z,28.60
2023-01-25T13:37:20.612Z,31.60
2023-01-25T13:39:57.533Z,35.10
2023-01-25T13:42:37.088Z,42.00
2023-01-25T13:45:18.815Z,42.10
2023-01-25T13:48:13.428Z,44.40
2023-01-25T13:50:52.635Z,40.70
2023-01-25T13:53:25.135Z,40.20
2023-01-25T13:55:56.568Z,47.90
2023-01-25T13:58:30.742Z,44.50
2023-01-25T14:01:12.360Z,42.70
2023-01-25T14:03:45.203Z,49.10
2023-01-25T14:06:20.031Z,48.40
2023-01-25T14:08:50.677Z,44.30
2023-01-25T14:11:26.255Z,45.00
2023-01-25T14:14:01.646Z,43.20
2023-01-25T14:16:32.166Z,44.30
2023-01-25T14:19:23.682Z,46.80
2023-01-25T14:22:31.397Z,56.20
2023-01-25T14:25:07.467Z,70.70
2023-01-25T14:27:41.569Z,51.90
2023-01-25T14:30:18.026Z,50.00
2023-01-25T14:32:47.146Z,43.70
2023-01-25T14:35:42.272Z,58.60
2023-01-25T14:38:25.792Z,68.20
2023-01-25T14:41:02.534Z,67.20
2023-01-25T14:43:31.570Z,58.50
2023-01-25T14:45:59.880Z,50.60
2023-01-25T14:48:41.646Z,47.70
2023-01-25T14:51:13.182Z,43.60
2023-01-25T14:53:46.834Z,50.40
2023-01-25T14:56:25.844Z,53.40
2023-01-25T14:58:59.597Z,64.60
2023-01-25T15:01:40.059Z,57.90
2023-01-25T15:04:13.657Z,62.40
2023-01-25T15:06:51.189Z,56.90
2023-01-25T15:09:31.809Z,51.00
2023-01-25T15:12:27.496Z,54.30
2023-01-25T15:14:58.620Z,46.40
2023-01-25T15:17:41.109Z,52.90
2023-01-25T15:20:41.764Z,59.80
2023-01-25T15:23:26.422Z,66.10
2023-01-25T15:25:57.203Z,57.90
2023-01-25T15:28:28.584Z,56.40
2023-01-25T15:30:59.670Z,70.70
2023-01-25T15:33:30.441Z,60.60
2023-01-25T15:35:59.488Z,57.10
2023-01-25T15:38:27.850Z,54.80
2023-01-25T15:41:01.472Z,61.80
2023-01-25T15:43:29.867Z,53.40
2023-01-25T15:46:00.351Z,54.40
2023-01-25T15:48:43.006Z,49.10
2023-01-25T15:51:13.422Z,41.20
2023-01-25T15:53:41.921Z,42.30
2023-01-25T15:56:18.403Z,40.30
2023-01-25T15:58:55.836Z,38.30
2023-01-25T16:01:27.726Z,46.30
2023-01-25T16:03:57.898Z,43.00
2023-01-25T16:06:42.177Z,46.00
2023-01-25T16:09:21.582Z,41.10
2023-01-25T16:11:56.071Z,39.00
2023-01-25T16:14:30.461Z,46.00
2023-01-25T16:17:02.681Z,47.80
2023-01-25T16:19:32.203Z,71.00
2023-01-25T16:22:00.575Z,57.20
2023-01-25T16:24:28.950Z,54.60
2023-01-25T16:26:59.260Z,59.70
2023-01-25T16:29:27.735Z,67.20
2023-01-25T16:31:56.362Z,79.60
2023-01-25T16:34:24.825Z,87.80
2023-01-25T16:36:53.324Z,85.40
2023-01-25T16:39:24.110Z,73.40
2023-01-25T16:41:52.597Z,91.60
2023-01-25T16:44:20.990Z,103.60
2023-01-25T16:46:50.526Z,108.40
2023-01-25T16:49:27.587Z,84.40
2023-01-25T16:51:57.959Z,105.00
2023-01-25T16:54:27.029Z,81.00
2023-01-25T16:56:55.467Z,71.30
2023-01-25T16:59:24.955Z,73.60
2023-01-25T17:01:53.463Z,65.50
2023-01-25T17:04:21.813Z,64.20
2023-01-25T17:06:53.206Z,72.10
2023-01-25T17:09:24.792Z,74.30
2023-01-25T17:11:55.416Z,79.60
2023-01-25T17:14:23.931Z,64.40
2023-01-25T17:16:53.851Z,48.50
2023-01-25T17:19:23.812Z,64.70
2023-01-25T17:21:52.427Z,68.60
2023-01-25T17:24:21.979Z,52.70
2023-01-25T17:26:51.868Z,52.50
2023-01-25T17:29:21.848Z,47.90
2023-01-25T17:31:51.037Z,44.70
2023-01-25T17:34:19.855Z,48.30
2023-01-25T17:36:50.397Z,43.80
2023-01-25T17:39:20.945Z,44.10
2023-01-25T17:41:51.471Z,48.50
2023-01-25T17:44:22.911Z,48.00
2023-01-25T17:46:51.859Z,52.30
2023-01-25T17:49:22.800Z,55.10
2023-01-25T17:51:53.948Z,59.30
2023-01-25T17:54:22.634Z,59.40
2023-01-25T17:56:51.271Z,62.70
2023-01-25T17:59:20.126Z,76.50
2023-01-25T18:01:48.893Z,83.20
2023-01-25T18:04:17.757Z,57.00
2023-01-25T18:06:46.435Z,55.00
2023-01-25T18:09:15.182Z,50.70
2023-01-25T18:11:43.878Z,46.60
2023-01-25T18:14:17.052Z,50.00
2023-01-25T18:16:45.657Z,51.00
2023-01-25T18:19:14.214Z,47.10
2023-01-25T18:21:43.409Z,51.50
2023-01-25T18:24:15.047Z,51.30
2023-01-25T18:26:43.538Z,53.50
2023-01-25T18:29:15.200Z,44.00
2023-01-25T18:31:43.676Z,54.60
2023-01-25T18:34:12.186Z,48.70
2023-01-25T18:36:40.579Z,55.20
2023-01-25T18:39:09.156Z,49.10
2023-01-25T18:41:37.607Z,47.60
2023-01-25T18:44:06.239Z,50.60
2023-01-25T18:46:34.756Z,49.00
2023-01-25T18:49:03.797Z,53.10
2023-01-25T18:51:32.932Z,54.70
2023-01-25T18:54:01.672Z,53.80
2023-01-25T18:56:31.705Z,51.90
2023-01-25T18:59:00.309Z,56.70
2023-01-25T19:01:32.958Z,54.50
2023-01-25T19:04:01.760Z,52.50
2023-01-25T19:06:30.537Z,55.30
2023-01-25T19:09:00.095Z,79.40
2023-01-25T19:11:28.710Z,98.20
2023-01-25T19:13:58.612Z,82.10
2023-01-25T19:16:27.495Z,71.90
2023-01-25T19:18:56.151Z,63.20
2023-01-25T19:21:27.452Z,72.10
2023-01-25T19:23:56.679Z,59.50
2023-01-25T19:26:26.746Z,65.10
2023-01-25T19:28:56.336Z,54.60
2023-01-25T19:31:27.170Z,88.30
2023-01-25T19:33:58.073Z,55.10
2023-01-25T19:36:28.965Z,149.70
2023-01-25T19:38:57.702Z,84.20
2023-01-25T19:41:29.071Z,69.70
2023-01-25T19:44:00.352Z,55.20
2023-01-25T19:46:34.846Z,80.50
2023-01-25T19:49:08.235Z,56.40
2023-01-25T19:51:41.635Z,47.20
2023-01-25T19:54:15.931Z,57.00
2023-01-25T19:56:50.136Z,63.20
2023-01-25T19:59:25.744Z,50.50
2023-01-25T20:01:54.923Z,45.50
2023-01-25T20:04:25.043Z,43.40
2023-01-25T20:06:53.709Z,41.50
2023-01-25T20:09:28.312Z,41.40
2023-01-25T20:11:57.907Z,38.90
2023-01-25T20:14:26.543Z,39.10
2023-01-25T20:16:55.214Z,40.30
2023-01-25T20:19:23.680Z,41.60
2023-01-25T20:21:52.337Z,36.20
2023-01-25T20:24:20.935Z,36.50
2023-01-25T20:26:49.587Z,35.70
2023-01-25T20:29:19.970Z,30.50
2023-01-25T20:31:48.435Z,58.70
2023-01-25T20:34:20.848Z,34.80
2023-01-25T20:36:51.385Z,31.80
2023-01-25T20:39:21.701Z,29.00
2023-01-25T20:41:53.906Z,30.00
2023-01-25T20:44:22.797Z,34.60
2023-01-25T20:46:52.229Z,27.50
2023-01-25T20:49:20.877Z,24.90
2023-01-25T20:51:49.406Z,27.40
2023-01-25T20:54:18.525Z,25.10
2023-01-25T20:56:48.307Z,35.60
2023-01-25T20:59:18.199Z,26.80
2023-01-25T21:01:47.049Z,28.50
2023-01-25T21:04:15.504Z,33.20
2023-01-25T21:06:44.137Z,27.80
2023-01-25T21:09:12.875Z,32.70
2023-01-25T21:11:41.604Z,27.50
2023-01-25T21:14:10.179Z,28.20
2023-01-25T21:16:39.804Z,28.60
2023-01-25T21:19:08.643Z,27.30
2023-01-25T21:21:39.275Z,26.30
2023-01-25T21:24:15.019Z,26.80
2023-01-25T21:26:43.714Z,21.00
2023-01-25T21:29:12.234Z,22.50
2023-01-25T21:31:54.082Z,19.90
2023-01-25T21:34:23.377Z,22.20
2023-01-25T21:36:51.949Z,21.40
2023-01-25T21:39:26.877Z,29.80
2023-01-25T21:41:55.891Z,22.20
2023-01-25T21:44:43.357Z,26.50
2023-01-25T21:47:29.477Z,25.90
2023-01-25T21:50:21.561Z,23.40
2023-01-25T21:52:49.921Z,26.10
2023-01-25T21:55:19.280Z,30.80
2023-01-25T21:57:49.245Z,27.70
2023-01-25T22:00:18.137Z,23.80
2023-01-25T22:02:46.581Z,21.50
2023-01-25T22:05:15.174Z,23.60
2023-01-25T22:07:43.622Z,23.40
2023-01-25T22:10:12.178Z,22.50
2023-01-25T22:12:40.815Z,22.90
2023-01-25T22:15:09.532Z,22.10
2023-01-25T22:17:37.975Z,25.10
2023-01-25T22:20:08.526Z,23.10
2023-01-25T22:22:37.241Z,22.40
2023-01-25T22:25:06.928Z,24.90
2023-01-25T22:27:49.466Z,21.80
2023-01-25T22:30:17.922Z,22.50
2023-01-25T22:32:46.303Z,22.80
2023-01-25T22:35:14.613Z,23.10
2023-01-25T22:37:43.001Z,23.30
2023-01-25T22:40:12.389Z,20.50
2023-01-25T22:42:42.276Z,21.50
2023-01-25T22:45:10.651Z,21.80
2023-01-25T22:47:38.989Z,21.50
2023-01-25T22:50:08.005Z,21.30
2023-01-25T22:52:36.871Z,21.60
2023-01-25T22:55:05.390Z,21.70
2023-01-25T22:57:33.692Z,20.50
2023-01-25T23:00:02.188Z,24.80
2023-01-25T23:02:30.874Z,20.10
2023-01-25T23:04:59.303Z,25.50
2023-01-25T23:07:27.713Z,23.40
2023-01-25T23:09:56.029Z,21.00
2023-01-25T23:12:24.303Z,21.30
2023-01-25T23:14:54.129Z,20.10
2023-01-25T23:17:42.983Z,20.40
2023-01-25T23:20:12.872Z,19.00
2023-01-25T23:22:41.673Z,19.30
2023-01-25T23:25:12.238Z,19.60
2023-01-25T23:27:41.695Z,23.30
2023-01-25T23:30:10.978Z,20.70
2023-01-25T23:32:49.398Z,20.00
2023-01-25T23:35:20.549Z,23.00
2023-01-25T23:37:49.019Z,19.70
2023-01-25T23:40:17.436Z,21.40
2023-01-25T23:42:45.860Z,22.10
2023-01-25T23:45:14.125Z,22.50
2023-01-25T23:47:42.378Z,20.30
2023-01-25T23:50:11.907Z,19.60
2023-01-25T23:52:40.780Z,21.80
2023-01-25T23:55:09.696Z,21.60
2023-01-25T23:57:38.167Z,18.90
